Time,TemperatureF,DewpointF,PressureIn,WindDirection,WindDirectionDegrees,WindSpeedMPH,WindSpeedGustMPH,Humidity,HourlyPrecipIn,Conditions,Clouds,dailyrainin,SolarRadiationWatts/m^2,SoftwareType,DateUTC
2013-01-19 00:01:00,26.1,10.9,30.20,ESE,113,4.0,4.0,52,0.00,OVC,,0.00,0.0,WeatherDisplay:10.37,2013-01-19 05:01:00,
2013-01-19 00:02:00,26.1,10.9,30.20,ESE,113,4.0,4.0,52,0.00,OVC,,0.00,0.0,WeatherDisplay:10.37,2013-01-19 05:02:00,
2013-01-19 00:03:00,26.1,11.3,30.20,ESE,111,4.0,4.0,53,0.00,OVC,,0.00,0.0,WeatherDisplay:10.37,2013-01-19 05:03:00,
2013-01-19 00:08:00,26.3,11.0,30.20,SE,128,4.0,4.0,52,0.00,OVC,,0.00,0.0,WeatherDisplay:10.37,2013-01-19 05:08:00,
2013-01-19 00:13:00,26.3,11.0,30.19,ESE,114,4.6,4.6,52,0.00,OVC,,0.00,0.0,WeatherDisplay:10.37,2013-01-19 05:13:00,
2013-01-19 00:18:00,26.3,11.0,30.19,ESE,113,3.5,3.5,52,0.00,OVC,,0.00,0.0,WeatherDisplay:10.37,2013-01-19 05:18:00,
2013-01-19 00:23:00,26.4,11.1,30.19,ESE,112,3.5,3.5,52,0.00,OVC,,0.00,0.0,WeatherDisplay:10.37,2013-01-19 05:23:00,
2013-01-19 00:28:00,26.4,11.1,30.18,ESE,109,6.0,6.0,52,0.00,OVC,,0.00,0.0,WeatherDisplay:10.37,2013-01-19 05:28:00,
2013-01-19 00:33:00,26.7,11.0,30.18,SE,129,6.0,6.0,51,0.00,OVC,,0.00,0.0,WeatherDisplay:10.37,2013-01-19 05:33:00,
2013-01-19 00:38:00,26.9,11.6,30.18,ESE,119,5.0,5.0,52,0.00,OVC,,0.00,0.0,WeatherDisplay:10.37,2013-01-19 05:38:00,
2013-01-19 00:43:00,27.0,11.3,30.16,ESE,113,6.9,6.9,51,0.00,OVC,,0.00,0.0,WeatherDisplay:10.37,2013-01-19 05:43:00,
2013-01-19 00:48:00,27.0,11.7,30.16,ESE,120,4.0,4.0,52,0.00,OVC,,0.00,0.0,WeatherDisplay:10.37,2013-01-19 05:48:00,
2013-01-19 00:53:00,27.2,11.9,30.16,SE,127,5.0,5.0,52,0.00,OVC,,0.00,0.0,WeatherDisplay:10.37,2013-01-19 05:53:00,
2013-01-19 00:58:00,27.3,12.4,30.15,ESE,121,5.0,5.0,53,0.00,OVC,,0.00,0.0,WeatherDisplay:10.37,2013-01-19 05:58:00,
2013-01-19 01:03:00,27.6,12.2,30.15,SE,146,9.0,9.0,52,0.00,OVC,,0.00,0.0,WeatherDisplay:10.37,2013-01-19 06:03:00,
2013-01-19 01:08:00,27.9,11.6,30.15,ESE,120,8.1,8.1,50,0.00,OVC,,0.00,0.0,WeatherDisplay:10.37,2013-01-19 06:08:00,
2013-01-19 01:13:00,28.1,12.3,30.15,SE,139,7.0,7.0,51,0.00,OVC,,0.00,0.0,WeatherDisplay:10.37,2013-01-19 06:13:00,
2013-01-19 01:18:00,28.1,12.3,30.15,ESE,116,5.0,5.0,51,0.00,OVC,,0.00,0.0,WeatherDisplay:10.37,2013-01-19 06:18:00,
2013-01-19 01:23:00,27.9,12.1,30.15,ESE,113,5.0,5.0,51,0.00,OVC,,0.00,0.0,WeatherDisplay:10.37,2013-01-19 06:23:00,
2013-01-19 01:28:00,27.9,12.1,30.14,ESE,116,3.5,3.5,51,0.00,OVC,,0.00,0.0,WeatherDisplay:10.37,2013-01-19 06:28:00,
2013-01-19 01:33:00,27.9,12.5,30.14,ESE,112,3.5,3.5,52,0.00,OVC,,0.00,0.0,WeatherDisplay:10.37,2013-01-19 06:33:00,
2013-01-19 01:38:00,27.9,13.0,30.14,ESE,112,1.1,1.1,53,0.00,OVC,,0.00,0.0,WeatherDisplay:10.37,2013-01-19 06:38:00,
2013-01-19 01:43:00,27.9,13.0,30.14,ESE,112,2.3,2.3,53,0.00,OVC,,0.00,0.0,WeatherDisplay:10.37,2013-01-19 06:43:00,
2013-01-19 01:48:00,28.2,12.8,30.14,ESE,114,4.0,4.0,52,0.00,OVC,,0.00,0.0,WeatherDisplay:10.37,2013-01-19 06:48:00,
2013-01-19 01:53:00,28.4,13.0,30.14,ESE,117,3.5,3.5,52,0.00,OVC,,0.00,0.0,WeatherDisplay:10.37,2013-01-19 06:53:00,
2013-01-19 01:58:00,28.5,12.6,30.13,ESE,116,6.0,6.0,51,0.00,OVC,,0.00,0.0,WeatherDisplay:10.37,2013-01-19 06:58:00,
2013-01-19 02:04:00,29.0,12.7,30.13,SE,144,9.0,9.0,50,0.00,OVC,,0.00,0.0,WeatherDisplay:10.37,2013-01-19 07:04:00,
2013-01-19 02:09:00,29.3,12.9,30.13,SE,135,12.0,12.0,50,0.00,OVC,,0.00,0.0,WeatherDisplay:10.37,2013-01-19 07:09:00,
2013-01-19 02:14:00,29.5,14.5,30.13,SE,124,5.0,5.0,53,0.00,OVC,,0.00,0.0,WeatherDisplay:10.37,2013-01-19 07:14:00,
2013-01-19 02:19:00,29.7,13.3,30.13,SSE,158,7.0,7.0,50,0.00,OVC,,0.00,0.0,WeatherDisplay:10.37,2013-01-19 07:19:00,
2013-01-19 02:24:00,30.0,12.7,30.13,SSE,161,10.0,10.0,48,0.00,OVC,,0.00,0.0,WeatherDisplay:10.37,2013-01-19 07:24:00,
2013-01-19 02:29:00,30.1,12.7,30.12,SE,141,6.9,6.9,48,0.00,OVC,,0.00,0.0,WeatherDisplay:10.37,2013-01-19 07:29:00,
2013-01-19 02:34:00,30.1,12.3,30.12,SE,127,6.0,6.0,47,0.00,OVC,,0.00,0.0,WeatherDisplay:10.37,2013-01-19 07:34:00,
2013-01-19 02:39:00,30.1,12.3,30.12,SE,125,7.0,7.0,47,0.00,OVC,,0.00,0.0,WeatherDisplay:10.37,2013-01-19 07:39:00,
2013-01-19 02:44:00,30.3,12.5,30.12,SE,137,3.5,3.5,47,0.00,OVC,,0.00,0.0,WeatherDisplay:10.37,2013-01-19 07:44:00,
2013-01-19 02:49:00,30.1,12.7,30.12,SE,138,4.6,4.6,48,0.00,OVC,,0.00,0.0,WeatherDisplay:10.37,2013-01-19 07:49:00,
2013-01-19 02:54:00,30.3,13.4,30.12,SSE,151,11.5,11.5,49,0.00,OVC,,0.00,0.0,WeatherDisplay:10.37,2013-01-19 07:54:00,
2013-01-19 02:59:00,30.3,12.5,30.11,SSE,154,5.0,5.0,47,0.00,OVC,,0.00,0.0,WeatherDisplay:10.37,2013-01-19 07:59:00,
2013-01-19 03:04:00,30.4,12.5,30.11,SE,138,13.0,13.0,47,0.00,OVC,,0.00,0.0,WeatherDisplay:10.37,2013-01-19 08:04:00,
2013-01-19 03:09:00,30.6,12.7,30.11,SE,131,6.0,6.0,47,0.00,OVC,,0.00,0.0,WeatherDisplay:10.37,2013-01-19 08:09:00,
2013-01-19 03:14:00,30.6,13.2,30.10,SE,140,6.0,6.0,48,0.00,OVC,,0.00,0.0,WeatherDisplay:10.37,2013-01-19 08:14:00,
2013-01-19 03:19:00,30.9,13.5,30.10,SE,127,5.0,5.0,48,0.00,OVC,,0.00,0.0,WeatherDisplay:10.37,2013-01-19 08:19:00,
2013-01-19 03:24:00,31.2,12.3,30.10,SSE,156,12.0,12.0,45,0.00,OVC,,0.00,0.0,WeatherDisplay:10.37,2013-01-19 08:24:00,
2013-01-19 03:29:00,31.8,11.8,30.09,SE,138,13.0,13.0,43,0.00,OVC,,0.00,0.0,WeatherDisplay:10.37,2013-01-19 08:29:00,
2013-01-19 03:34:00,32.1,12.1,30.09,SE,141,8.1,8.1,43,0.00,OVC,,0.00,0.0,WeatherDisplay:10.37,2013-01-19 08:34:00,
2013-01-19 03:39:00,31.9,12.4,30.09,SSE,155,7.0,7.0,44,0.00,OVC,,0.00,0.0,WeatherDisplay:10.37,2013-01-19 08:39:00,
2013-01-19 03:44:00,31.9,12.4,30.08,SE,144,14.0,14.0,44,0.00,OVC,,0.00,0.0,WeatherDisplay:10.37,2013-01-19 08:44:00,
2013-01-19 03:49:00,31.9,12.9,30.08,ESE,106,6.0,6.0,45,0.00,OVC,,0.00,0.0,WeatherDisplay:10.37,2013-01-19 08:49:00,
2013-01-19 03:54:00,31.9,14.9,30.08,ESE,120,6.0,6.0,49,0.00,OVC,,0.00,0.0,WeatherDisplay:10.37,2013-01-19 08:54:00,
2013-01-19 03:59:00,31.8,13.3,30.07,SSE,166,10.0,10.0,46,0.00,OVC,,0.00,0.0,WeatherDisplay:10.37,2013-01-19 08:59:00,
2013-01-19 04:04:00,31.8,12.8,30.07,SSE,155,6.0,6.0,45,0.00,OVC,,0.00,0.0,WeatherDisplay:10.37,2013-01-19 09:04:00,
2013-01-19 04:09:00,31.8,13.3,30.07,SE,132,7.0,7.0,46,0.00,OVC,,0.00,0.0,WeatherDisplay:10.37,2013-01-19 09:09:00,
2013-01-19 04:14:00,31.8,13.3,30.06,SE,135,5.8,5.8,46,0.00,OVC,,0.00,0.0,WeatherDisplay:10.37,2013-01-19 09:14:00,
2013-01-19 04:19:00,31.8,13.3,30.06,SE,140,5.8,5.8,46,0.00,OVC,,0.00,0.0,WeatherDisplay:10.37,2013-01-19 09:19:00,
2013-01-19 04:24:00,31.8,13.8,30.06,ESE,118,4.0,4.0,47,0.00,OVC,,0.00,0.0,WeatherDisplay:10.37,2013-01-19 09:24:00,
2013-01-19 04:29:00,31.9,12.9,30.06,South,172,3.5,3.5,45,0.00,OVC,,0.00,0.0,WeatherDisplay:10.37,2013-01-19 09:29:00,
2013-01-19 04:34:00,31.9,13.4,30.06,South,172,3.5,3.5,46,0.00,OVC,,0.00,0.0,WeatherDisplay:10.37,2013-01-19 09:34:00,
2013-01-19 04:39:00,31.9,13.9,30.06,South,172,4.0,4.0,47,0.00,OVC,,0.00,0.0,WeatherDisplay:10.37,2013-01-19 09:39:00,
2013-01-19 04:44:00,31.8,13.8,30.06,ESE,123,6.0,6.0,47,0.00,OVC,,0.00,0.0,WeatherDisplay:10.37,2013-01-19 09:44:00,
2013-01-19 04:49:00,32.1,14.1,30.06,ESE,119,3.5,3.5,47,0.00,OVC,,0.00,0.0,WeatherDisplay:10.37,2013-01-19 09:49:00,
2013-01-19 04:54:00,32.2,13.7,30.06,ESE,123,5.8,5.8,46,0.00,OVC,,0.00,0.0,WeatherDisplay:10.37,2013-01-19 09:54:00,
2013-01-19 04:59:00,32.2,13.2,30.04,SE,127,2.3,2.3,45,0.00,OVC,,0.00,0.0,WeatherDisplay:10.37,2013-01-19 09:59:00,
2013-01-19 05:04:00,32.5,14.5,30.04,South,179,9.0,9.0,47,0.00,OVC,,0.00,0.0,WeatherDisplay:10.37,2013-01-19 10:04:00,
2013-01-19 05:09:00,32.8,14.8,30.04,South,172,6.9,6.9,47,0.00,OVC,,0.00,0.0,WeatherDisplay:10.37,2013-01-19 10:09:00,
2013-01-19 05:14:00,32.9,13.9,30.04,SSE,159,7.0,7.0,45,0.00,OVC,,0.00,0.0,WeatherDisplay:10.37,2013-01-19 10:14:00,
2013-01-19 05:19:00,33.2,13.6,30.04,SE,140,4.6,4.6,44,0.00,OVC,,0.00,0.0,WeatherDisplay:10.37,2013-01-19 10:19:00,
2013-01-19 05:24:00,33.4,13.8,30.04,SE,142,6.9,6.9,44,0.00,OVC,,0.00,0.0,WeatherDisplay:10.37,2013-01-19 10:24:00,
2013-01-19 05:29:00,33.7,13.5,30.04,South,191,5.0,5.0,43,0.00,OVC,,0.00,0.0,WeatherDisplay:10.37,2013-01-19 10:29:00,
2013-01-19 05:34:00,34.0,13.8,30.04,SSE,151,4.6,4.6,43,0.00,OVC,,0.00,0.0,WeatherDisplay:10.37,2013-01-19 10:34:00,
2013-01-19 05:39:00,34.3,14.1,30.04,SW,215,11.5,11.5,43,0.00,OVC,,0.00,0.0,WeatherDisplay:10.37,2013-01-19 10:39:00,
2013-01-19 05:44:00,34.6,13.8,30.04,SE,131,12.7,12.7,42,0.00,OVC,,0.00,0.0,WeatherDisplay:10.37,2013-01-19 10:44:00,
2013-01-19 05:49:00,34.7,14.5,30.04,South,186,3.5,3.5,43,0.00,OVC,,0.00,0.0,WeatherDisplay:10.37,2013-01-19 10:49:00,
2013-01-19 05:54:00,34.9,14.1,30.04,South,180,14.0,14.0,42,0.00,OVC,,0.00,0.0,WeatherDisplay:10.37,2013-01-19 10:54:00,
2013-01-19 05:59:00,34.9,14.1,30.04,SSW,201,12.0,12.0,42,0.00,OVC,,0.00,0.0,WeatherDisplay:10.37,2013-01-19 10:59:00,
2013-01-19 06:04:00,34.9,14.6,30.04,South,182,6.0,6.0,43,0.00,OVC,,0.00,0.0,WeatherDisplay:10.37,2013-01-19 11:04:00,
2013-01-19 06:09:00,34.9,14.1,30.04,SSE,168,15.0,15.0,42,0.00,OVC,,0.00,0.0,WeatherDisplay:10.37,2013-01-19 11:09:00,
2013-01-19 06:14:00,34.9,14.1,30.03,South,171,6.9,6.9,42,0.00,OVC,,0.00,0.0,WeatherDisplay:10.37,2013-01-19 11:14:00,
2013-01-19 07:47:00,35.3,15.0,30.02,South,180,16.1,16.1,43,0.00,OVC,,0.00,7.0,WeatherDisplay:10.37,2013-01-19 12:47:00,
2013-01-19 07:48:00,35.3,15.0,30.02,South,183,16.1,16.1,43,0.00,OVC,,0.00,9.0,WeatherDisplay:10.37,2013-01-19 12:48:00,
2013-01-19 07:53:00,35.5,14.1,30.02,South,177,18.4,18.4,41,0.00,OVC,,0.00,9.0,WeatherDisplay:10.37,2013-01-19 12:53:00,
2013-01-19 07:58:00,35.5,14.1,30.02,SSE,168,6.9,6.9,41,0.00,OVC,,0.00,12.0,WeatherDisplay:10.37,2013-01-19 12:58:00,
2013-01-19 08:03:00,35.6,14.7,30.02,SE,144,13.0,13.0,42,0.00,OVC,,0.00,16.0,WeatherDisplay:10.37,2013-01-19 13:03:00,
2013-01-19 08:08:00,35.8,14.9,30.02,WSW,240,10.4,10.4,42,0.00,OVC,,0.00,19.0,WeatherDisplay:10.37,2013-01-19 13:08:00,
2013-01-19 08:13:00,35.8,14.4,30.02,SE,130,5.8,5.8,41,0.00,OVC,,0.00,25.0,WeatherDisplay:10.37,2013-01-19 13:13:00,
2013-01-19 08:18:00,35.9,14.5,30.02,South,175,9.2,9.2,41,0.00,OVC,,0.00,25.0,WeatherDisplay:10.37,2013-01-19 13:18:00,
2013-01-19 08:23:00,36.0,15.1,30.02,SSE,163,10.4,10.4,42,0.00,OVC,,0.00,30.0,WeatherDisplay:10.37,2013-01-19 13:23:00,
2013-01-19 08:28:00,36.2,15.3,30.03,SSW,194,9.2,9.2,42,0.00,OVC,,0.00,46.0,WeatherDisplay:10.37,2013-01-19 13:28:00,
2013-01-19 08:33:00,36.2,14.7,30.03,South,190,7.0,7.0,41,0.00,OVC,,0.00,46.0,WeatherDisplay:10.37,2013-01-19 13:33:00,
2013-01-19 08:39:00,36.3,14.8,30.03,SSE,156,8.1,8.1,41,0.00,OVC,,0.00,49.0,WeatherDisplay:10.37,2013-01-19 13:39:00,
2013-01-19 08:44:00,36.5,16.6,30.03,SSE,164,11.5,11.5,44,0.00,OVC,,0.00,33.0,WeatherDisplay:10.37,2013-01-19 13:44:00,
2013-01-19 08:49:00,36.5,15.6,30.03,SE,135,11.5,11.5,42,0.00,OVC,,0.00,25.0,WeatherDisplay:10.37,2013-01-19 13:49:00,
2013-01-19 08:54:00,36.5,15.0,30.03,ESE,120,9.0,9.0,41,0.00,OVC,,0.00,25.0,WeatherDisplay:10.37,2013-01-19 13:54:00,
2013-01-19 08:59:00,36.5,15.6,30.03,SE,138,6.0,6.0,42,0.00,OVC,,0.00,28.0,WeatherDisplay:10.37,2013-01-19 13:59:00,
2013-01-19 09:04:00,36.6,15.6,30.03,SE,142,12.7,12.7,42,0.00,OVC,,0.00,32.0,WeatherDisplay:10.37,2013-01-19 14:04:00,
2013-01-19 09:09:00,36.6,15.6,30.03,South,182,21.0,21.0,42,0.00,OVC,,0.00,35.0,WeatherDisplay:10.37,2013-01-19 14:09:00,
2013-01-19 09:14:00,36.8,15.3,30.03,SSW,198,11.5,11.5,41,0.00,OVC,,0.00,39.0,WeatherDisplay:10.37,2013-01-19 14:14:00,
2013-01-19 09:19:00,36.9,15.4,30.03,South,170,17.3,17.3,41,0.00,OVC,,0.00,37.0,WeatherDisplay:10.37,2013-01-19 14:19:00,
2013-01-19 09:24:00,37.0,14.9,30.03,SSW,208,9.0,9.0,40,0.00,OVC,,0.00,37.0,WeatherDisplay:10.37,2013-01-19 14:24:00,
2013-01-19 09:29:00,37.0,15.5,30.03,SSE,149,8.1,8.1,41,0.00,OVC,,0.00,30.0,WeatherDisplay:10.37,2013-01-19 14:29:00,
2013-01-19 09:34:00,37.3,16.3,30.03,SSW,198,11.5,11.5,42,0.00,OVC,,0.00,28.0,WeatherDisplay:10.37,2013-01-19 14:34:00,
2013-01-19 09:39:00,37.3,15.7,30.03,WSW,242,9.2,9.2,41,0.00,OVC,,0.00,23.0,WeatherDisplay:10.37,2013-01-19 14:39:00,
2013-01-19 09:44:00,37.5,15.9,30.03,South,177,6.0,6.0,41,0.00,OVC,,0.00,23.0,WeatherDisplay:10.37,2013-01-19 14:44:00,
2013-01-19 09:49:00,37.5,15.9,30.03,SSW,196,6.0,6.0,41,0.00,OVC,,0.00,39.0,WeatherDisplay:10.37,2013-01-19 14:49:00,
2013-01-19 09:54:00,37.5,15.9,30.03,SE,131,10.4,10.4,41,0.00,OVC,,0.00,53.0,WeatherDisplay:10.37,2013-01-19 14:54:00,
2013-01-19 09:59:00,37.6,16.0,30.03,SSE,153,13.0,13.0,41,0.00,OVC,,0.00,54.0,WeatherDisplay:10.37,2013-01-19 14:59:00,
2013-01-19 10:04:00,37.8,16.2,30.03,South,175,9.2,9.2,41,0.00,OVC,,0.00,58.0,WeatherDisplay:10.37,2013-01-19 15:04:00,
2013-01-19 10:09:00,37.9,16.3,30.03,South,174,13.0,13.0,41,0.00,OVC,,0.00,62.0,WeatherDisplay:10.37,2013-01-19 15:09:00,
2013-01-19 10:14:00,38.0,16.4,30.03,SSW,200,9.2,9.2,41,0.00,OVC,,0.00,65.0,WeatherDisplay:10.37,2013-01-19 15:14:00,
2013-01-19 10:19:00,38.0,16.4,30.03,SSE,149,12.0,12.0,41,0.00,OVC,,0.00,63.0,WeatherDisplay:10.37,2013-01-19 15:19:00,
2013-01-19 10:24:00,38.2,16.5,30.03,South,176,9.2,9.2,41,0.00,OVC,,0.00,70.0,WeatherDisplay:10.37,2013-01-19 15:24:00,
2013-01-19 10:29:00,38.3,16.1,30.02,South,180,11.5,11.5,40,0.00,OVC,,0.00,79.0,WeatherDisplay:10.37,2013-01-19 15:29:00,
2013-01-19 10:34:00,38.3,16.1,30.02,SSE,158,10.4,10.4,40,0.00,OVC,,0.00,93.0,WeatherDisplay:10.37,2013-01-19 15:34:00,
2013-01-19 10:39:00,38.5,17.4,30.02,SSW,194,8.0,8.0,42,0.00,OVC,,0.00,123.0,WeatherDisplay:10.37,2013-01-19 15:39:00,
2013-01-19 10:44:00,38.8,17.1,30.02,SSE,163,12.0,12.0,41,0.00,OVC,,0.00,104.0,WeatherDisplay:10.37,2013-01-19 15:44:00,
2013-01-19 10:49:00,38.9,17.2,30.02,South,169,9.2,9.2,41,0.00,OVC,,0.00,95.0,WeatherDisplay:10.37,2013-01-19 15:49:00,
2013-01-19 10:54:00,39.1,16.8,30.02,SSE,152,10.4,10.4,40,0.00,OVC,,0.00,97.0,WeatherDisplay:10.37,2013-01-19 15:54:00,
2013-01-19 10:59:00,39.1,16.8,30.02,SE,146,12.0,12.0,40,0.00,OVC,,0.00,118.0,WeatherDisplay:10.37,2013-01-19 15:59:00,
2013-01-19 11:04:00,39.2,17.4,30.02,SSE,163,7.0,7.0,41,0.00,OVC,,0.00,120.0,WeatherDisplay:10.37,2013-01-19 16:04:00,
2013-01-19 11:09:00,39.2,16.9,30.02,SSE,164,10.4,10.4,40,0.00,OVC,,0.00,127.0,WeatherDisplay:10.37,2013-01-19 16:09:00,
2013-01-19 11:14:00,39.5,17.1,30.01,South,177,13.8,13.8,40,0.00,OVC,,0.00,156.0,WeatherDisplay:10.37,2013-01-19 16:14:00,
2013-01-19 11:19:00,39.6,17.8,30.01,SSW,208,14.0,14.0,41,0.00,OVC,,0.00,160.0,WeatherDisplay:10.37,2013-01-19 16:19:00,
2013-01-19 11:24:00,39.8,17.4,30.01,South,187,7.0,7.0,40,0.00,OVC,,0.00,171.0,WeatherDisplay:10.37,2013-01-19 16:24:00,
2013-01-19 11:29:00,40.1,17.7,30.00,SSE,160,11.5,11.5,40,0.00,OVC,,0.00,183.0,WeatherDisplay:10.37,2013-01-19 16:29:00,
2013-01-19 11:34:00,40.3,17.9,30.00,SW,221,8.0,8.0,40,0.00,OVC,,0.00,179.0,WeatherDisplay:10.37,2013-01-19 16:34:00,
2013-01-19 11:39:00,40.6,18.7,30.00,SSE,168,7.0,7.0,41,0.00,OVC,,0.00,176.0,WeatherDisplay:10.37,2013-01-19 16:39:00,
2013-01-19 11:44:00,40.9,17.8,29.98,SW,232,11.5,11.5,39,0.00,OVC,,0.00,209.0,WeatherDisplay:10.37,2013-01-19 16:44:00,
2013-01-19 11:49:00,41.2,18.1,29.98,South,182,5.0,5.0,39,0.00,OVC,,0.00,193.0,WeatherDisplay:10.37,2013-01-19 16:49:00,
2013-01-19 11:54:00,41.5,18.4,29.98,SW,235,10.0,10.0,39,0.00,OVC,,0.00,120.0,WeatherDisplay:10.37,2013-01-19 16:54:00,
2013-01-19 11:59:00,41.5,18.9,29.98,SSE,161,4.0,4.0,40,0.00,OVC,,0.00,81.0,WeatherDisplay:10.37,2013-01-19 16:59:00,
2013-01-19 12:04:00,41.5,18.9,29.98,South,187,10.4,10.4,40,0.00,OVC,,0.00,86.0,WeatherDisplay:10.37,2013-01-19 17:04:00,
2013-01-19 12:09:00,41.6,19.0,29.98,South,188,4.0,4.0,40,0.00,OVC,,0.00,90.0,WeatherDisplay:10.37,2013-01-19 17:09:00,
2013-01-19 12:14:00,41.6,19.0,29.98,SSW,194,3.5,3.5,40,0.00,OVC,,0.00,100.0,WeatherDisplay:10.37,2013-01-19 17:14:00,
2013-01-19 12:20:00,41.8,19.8,29.98,South,182,7.0,7.0,41,0.00,OVC,,0.00,113.0,WeatherDisplay:10.37,2013-01-19 17:20:00,
2013-01-19 12:26:00,41.9,20.4,29.98,SSW,201,6.9,6.9,42,0.00,OVC,,0.00,135.0,WeatherDisplay:10.37,2013-01-19 17:26:00,
2013-01-19 12:31:00,42.1,20.1,29.98,SSW,196,5.0,5.0,41,0.00,OVC,,0.00,127.0,WeatherDisplay:10.37,2013-01-19 17:31:00,
2013-01-19 12:37:00,42.3,19.1,29.98,SSE,163,10.4,10.4,39,0.00,OVC,,0.00,114.0,WeatherDisplay:10.37,2013-01-19 17:37:00,
2013-01-19 12:42:00,42.5,19.8,29.98,South,187,2.3,2.3,40,0.00,OVC,,0.00,98.0,WeatherDisplay:10.37,2013-01-19 17:42:00,
2013-01-19 12:47:00,42.5,19.8,29.98,SSE,160,4.6,4.6,40,0.00,OVC,,0.00,114.0,WeatherDisplay:10.37,2013-01-19 17:47:00,
2013-01-19 12:53:00,42.5,20.4,29.98,SE,136,4.0,4.0,41,0.00,OVC,,0.00,107.0,WeatherDisplay:10.37,2013-01-19 17:53:00,
2013-01-19 12:58:00,42.6,21.6,29.97,SSW,211,5.0,5.0,43,0.00,OVC,,0.00,127.0,WeatherDisplay:10.37,2013-01-19 17:58:00,
2013-01-19 13:03:00,42.6,22.7,29.97,SSW,213,3.5,3.5,45,0.00,OVC,,0.00,127.0,WeatherDisplay:10.37,2013-01-19 18:03:00,
2013-01-19 13:10:00,42.9,21.4,29.97,SW,221,5.0,5.0,42,0.00,OVC,,0.00,139.0,WeatherDisplay:10.37,2013-01-19 18:10:00,
2013-01-19 13:15:00,43.1,20.4,29.97,South,172,10.4,10.4,40,0.00,OVC,,0.00,137.0,WeatherDisplay:10.37,2013-01-19 18:15:00,
2013-01-19 13:20:00,43.3,21.1,29.97,SE,142,4.0,4.0,41,0.00,OVC,,0.00,153.0,WeatherDisplay:10.37,2013-01-19 18:20:00,
2013-01-19 13:25:00,43.6,20.8,29.97,SSE,150,3.5,3.5,40,0.00,OVC,,0.00,160.0,WeatherDisplay:10.37,2013-01-19 18:25:00,
2013-01-19 13:30:00,43.8,20.4,29.96,SSE,158,7.0,7.0,39,0.00,OVC,,0.00,165.0,WeatherDisplay:10.37,2013-01-19 18:30:00,
2013-01-19 13:35:00,44.1,21.3,29.96,SSW,201,5.0,5.0,40,0.00,OVC,,0.00,190.0,WeatherDisplay:10.37,2013-01-19 18:35:00,
2013-01-19 13:40:00,44.2,21.4,29.96,WSW,252,3.5,3.5,40,0.00,OVC,,0.00,236.0,WeatherDisplay:10.37,2013-01-19 18:40:00,
2013-01-19 13:45:00,44.6,21.1,29.95,South,191,4.0,4.0,39,0.00,OVC,,0.00,225.0,WeatherDisplay:10.37,2013-01-19 18:45:00,
2013-01-19 13:50:00,44.9,22.0,29.95,West,261,5.0,5.0,40,0.00,OVC,,0.00,153.0,WeatherDisplay:10.37,2013-01-19 18:50:00,
2013-01-19 13:55:00,45.1,21.6,29.95,SE,144,4.0,4.0,39,0.00,OVC,,0.00,204.0,WeatherDisplay:10.37,2013-01-19 18:55:00,
2013-01-19 14:02:00,45.4,23.0,29.95,South,171,4.0,4.0,41,0.00,OVC,,0.00,301.0,WeatherDisplay:10.37,2013-01-19 19:02:00,
2013-01-19 14:07:00,45.8,23.4,29.95,South,178,3.5,3.5,41,0.00,OVC,,0.00,229.0,WeatherDisplay:10.37,2013-01-19 19:07:00,
2013-01-19 14:12:00,46.1,21.9,29.94,SW,236,5.0,5.0,38,0.00,OVC,,0.00,193.0,WeatherDisplay:10.37,2013-01-19 19:12:00,
2013-01-19 14:17:00,46.2,22.0,29.94,SSE,148,7.0,7.0,38,0.00,OVC,,0.00,179.0,WeatherDisplay:10.37,2013-01-19 19:17:00,
2013-01-19 14:23:00,46.2,23.8,29.94,SSE,152,6.0,6.0,41,0.00,OVC,,0.00,195.0,WeatherDisplay:10.37,2013-01-19 19:23:00,
2013-01-19 14:28:00,46.2,23.2,29.94,WSW,241,5.0,5.0,40,0.00,OVC,,0.00,188.0,WeatherDisplay:10.37,2013-01-19 19:28:00,
2013-01-19 14:33:00,46.2,25.5,29.94,SSE,151,3.5,3.5,44,0.00,OVC,,0.00,162.0,WeatherDisplay:10.37,2013-01-19 19:33:00,
2013-01-19 14:38:00,46.0,23.0,29.94,SE,145,1.1,1.1,40,0.00,OVC,,0.00,120.0,WeatherDisplay:10.37,2013-01-19 19:38:00,
2013-01-19 14:44:00,45.8,24.0,29.93,SSW,203,3.0,3.0,42,0.00,OVC,,0.00,128.0,WeatherDisplay:10.37,2013-01-19 19:44:00,
2013-01-19 14:49:00,45.7,23.3,29.93,SSE,150,4.0,4.0,41,0.00,OVC,,0.00,123.0,WeatherDisplay:10.37,2013-01-19 19:49:00,
2013-01-19 14:54:00,45.4,22.5,29.93,ESE,119,5.0,5.0,40,0.00,OVC,,0.00,90.0,WeatherDisplay:10.37,2013-01-19 19:54:00,
2013-01-19 14:59:00,45.1,23.3,29.93,SE,138,3.5,3.5,42,0.00,OVC,,0.00,102.0,WeatherDisplay:10.37,2013-01-19 19:59:00,
2013-01-19 15:04:00,44.8,23.1,29.93,SE,138,3.5,3.5,42,0.00,OVC,,0.00,84.0,WeatherDisplay:10.37,2013-01-19 20:04:00,
2013-01-19 15:09:00,44.6,22.3,29.93,SE,138,3.5,3.5,41,0.00,OVC,,0.00,70.0,WeatherDisplay:10.37,2013-01-19 20:09:00,
2013-01-19 15:14:00,44.5,23.9,29.93,SE,141,3.5,3.5,44,0.00,OVC,,0.00,54.0,WeatherDisplay:10.37,2013-01-19 20:14:00,
2013-01-19 15:20:00,44.3,23.7,29.93,SE,139,2.3,2.3,44,0.00,OVC,,0.00,49.0,WeatherDisplay:10.37,2013-01-19 20:20:00,
2013-01-19 15:25:00,44.2,25.7,29.93,SE,139,0.0,0.0,48,0.00,OVC,,0.00,46.0,WeatherDisplay:10.37,2013-01-19 20:25:00,
2013-01-19 15:30:00,44.1,25.6,29.93,SE,139,1.1,0.0,48,0.00,OVC,,0.00,58.0,WeatherDisplay:10.37,2013-01-19 20:30:00,
2013-01-19 15:35:00,44.1,25.6,29.93,SE,139,0.0,0.0,48,0.00,OVC,,0.00,81.0,WeatherDisplay:10.37,2013-01-19 20:35:00,
2013-01-19 15:41:00,44.1,24.6,29.92,SE,139,0.0,0.0,46,0.00,OVC,,0.00,69.0,WeatherDisplay:10.37,2013-01-19 20:41:00,
2013-01-19 15:46:00,43.9,27.4,29.92,SE,139,1.0,1.0,52,0.00,OVC,,0.00,79.0,WeatherDisplay:10.37,2013-01-19 20:46:00,
2013-01-19 15:52:00,43.8,25.9,29.92,SE,139,2.3,2.3,49,0.00,OVC,,0.00,63.0,WeatherDisplay:10.37,2013-01-19 20:52:00,
2013-01-19 15:57:00,43.5,25.1,29.91,SE,138,1.1,0.0,48,0.00,OVC,,0.00,63.0,WeatherDisplay:10.37,2013-01-19 20:57:00,
2013-01-19 16:03:00,43.6,24.7,29.91,SE,138,0.0,0.0,47,0.00,OVC,,0.00,65.0,WeatherDisplay:10.37,2013-01-19 21:03:00,
2013-01-19 16:08:00,43.8,24.3,29.91,SE,138,0.0,0.0,46,0.00,OVC,,0.00,63.0,WeatherDisplay:10.37,2013-01-19 21:08:00,
2013-01-19 16:14:00,43.5,25.6,29.91,SE,138,0.0,0.0,49,0.00,OVC,,0.00,58.0,WeatherDisplay:10.37,2013-01-19 21:14:00,
2013-01-19 16:19:00,43.1,27.1,29.91,SE,138,2.3,2.3,53,0.00,OVC,,0.00,56.0,WeatherDisplay:10.37,2013-01-19 21:19:00,
2013-01-19 16:24:00,42.5,25.6,29.91,SE,137,2.3,2.3,51,0.00,OVC,,0.00,46.0,WeatherDisplay:10.37,2013-01-19 21:24:00,
2013-01-19 16:30:00,41.8,25.0,29.90,SE,134,0.0,3.0,51,0.00,OVC,,0.00,28.0,WeatherDisplay:10.37,2013-01-19 21:30:00,
2013-01-19 16:35:00,41.5,25.2,29.90,SE,130,1.1,0.0,52,0.00,OVC,,0.00,21.0,WeatherDisplay:10.37,2013-01-19 21:35:00,
2013-01-19 16:41:00,41.1,25.7,29.90,SE,130,2.3,2.3,54,0.00,OVC,,0.00,12.0,WeatherDisplay:10.37,2013-01-19 21:41:00,
2013-01-19 16:47:00,40.6,25.2,29.90,SE,130,1.1,1.1,54,0.00,OVC,,0.00,5.0,WeatherDisplay:10.37,2013-01-19 21:47:00,
2013-01-19 16:52:00,40.2,24.9,29.90,SE,130,0.0,0.0,54,0.00,OVC,,0.00,0.0,WeatherDisplay:10.37,2013-01-19 21:52:00,
2013-01-19 16:57:00,39.9,25.5,29.90,SE,130,0.0,0.0,56,0.00,OVC,,0.00,0.0,WeatherDisplay:10.37,2013-01-19 21:57:00,
2013-01-19 17:02:00,39.3,26.2,29.90,SE,130,0.0,0.0,59,0.00,BKN,,0.00,0.0,WeatherDisplay:10.37,2013-01-19 22:02:00,
2013-01-19 17:08:00,38.8,25.7,29.90,SE,130,0.0,0.0,59,0.00,BKN,,0.00,0.0,WeatherDisplay:10.37,2013-01-19 22:08:00,
2013-01-19 17:13:00,38.5,25.4,29.89,SE,130,1.1,0.0,59,0.00,BKN,,0.00,0.0,WeatherDisplay:10.37,2013-01-19 22:13:00,
2013-01-19 17:19:00,38.2,25.9,29.89,SE,130,1.0,1.0,61,0.00,BKN,,0.00,0.0,WeatherDisplay:10.37,2013-01-19 22:19:00,
2013-01-19 17:24:00,37.8,25.9,29.89,SE,130,2.3,2.3,62,0.00,BKN,,0.00,0.0,WeatherDisplay:10.37,2013-01-19 22:24:00,
2013-01-19 17:29:00,37.5,25.7,29.89,SE,130,2.3,2.3,62,0.00,BKN,,0.00,0.0,WeatherDisplay:10.37,2013-01-19 22:29:00,
2013-01-19 17:34:00,37.3,25.5,29.89,SE,130,2.3,2.3,62,0.00,BKN,,0.00,0.0,WeatherDisplay:10.37,2013-01-19 22:34:00,
2013-01-19 17:39:00,37.2,25.8,29.89,SE,130,2.3,2.3,63,0.00,BKN,,0.00,0.0,WeatherDisplay:10.37,2013-01-19 22:39:00,
2013-01-19 17:44:00,37.0,25.9,29.88,SE,130,2.3,2.3,64,0.00,BKN,,0.00,0.0,WeatherDisplay:10.37,2013-01-19 22:44:00,
2013-01-19 17:49:00,36.9,26.2,29.88,SSE,156,3.5,3.5,65,0.00,BKN,,0.00,0.0,WeatherDisplay:10.37,2013-01-19 22:49:00,
2013-01-19 17:54:00,36.8,26.1,29.88,SSE,156,2.3,2.3,65,0.00,BKN,,0.00,0.0,WeatherDisplay:10.37,2013-01-19 22:54:00,
2013-01-19 17:59:00,36.6,25.6,29.88,SSE,156,1.1,1.1,64,0.00,BKN,,0.00,0.0,WeatherDisplay:10.37,2013-01-19 22:59:00,
2013-01-19 18:04:00,36.5,25.8,29.88,SSE,156,2.3,2.3,65,0.00,OVC,,0.00,0.0,WeatherDisplay:10.37,2013-01-19 23:04:00,
2013-01-19 18:09:00,36.3,25.7,29.88,SSE,156,2.3,2.3,65,0.00,OVC,,0.00,0.0,WeatherDisplay:10.37,2013-01-19 23:09:00,
2013-01-19 18:15:00,36.2,25.6,29.87,SSE,156,2.3,2.3,65,0.00,OVC,,0.00,0.0,WeatherDisplay:10.37,2013-01-19 23:15:00,
2013-01-19 18:20:00,35.9,25.6,29.87,ESE,111,5.0,5.0,66,0.00,OVC,,0.00,0.0,WeatherDisplay:10.37,2013-01-19 23:20:00,
2013-01-19 18:25:00,35.6,25.4,29.87,SE,129,4.0,4.0,66,0.00,OVC,,0.00,0.0,WeatherDisplay:10.37,2013-01-19 23:25:00,
2013-01-19 18:32:00,35.6,25.7,29.87,SE,145,4.0,4.0,67,0.00,OVC,,0.00,0.0,WeatherDisplay:10.37,2013-01-19 23:32:00,
2013-01-19 18:37:00,35.6,25.4,29.87,SE,143,2.0,2.0,66,0.00,OVC,,0.00,0.0,WeatherDisplay:10.37,2013-01-19 23:37:00,
2013-01-19 18:42:00,35.6,25.4,29.86,SE,143,3.0,3.0,66,0.00,OVC,,0.00,0.0,WeatherDisplay:10.37,2013-01-19 23:42:00,
2013-01-19 18:47:00,35.6,25.7,29.86,SE,142,2.3,2.3,67,0.00,OVC,,0.00,0.0,WeatherDisplay:10.37,2013-01-19 23:47:00,
2013-01-19 18:53:00,35.6,25.7,29.86,SE,142,3.0,3.0,67,0.00,OVC,,0.00,0.0,WeatherDisplay:10.37,2013-01-19 23:53:00,
2013-01-19 18:58:00,35.6,25.7,29.86,SE,135,3.5,3.5,67,0.00,OVC,,0.00,0.0,WeatherDisplay:10.37,2013-01-19 23:58:00,
2013-01-19 19:03:00,35.8,26.3,29.86,ESE,109,3.0,3.0,68,0.00,SCT,,0.00,0.0,WeatherDisplay:10.37,2013-01-20 00:03:00,
2013-01-19 19:08:00,35.9,25.6,29.86,ESE,118,4.0,4.0,66,0.00,SCT,,0.00,0.0,WeatherDisplay:10.37,2013-01-20 00:08:00,
2013-01-19 19:13:00,36.2,25.6,29.85,SE,133,4.6,4.6,65,0.00,SCT,,0.00,0.0,WeatherDisplay:10.37,2013-01-20 00:13:00,
2013-01-19 19:18:00,36.9,25.5,29.85,SE,134,4.0,4.0,63,0.00,SCT,,0.00,0.0,WeatherDisplay:10.37,2013-01-20 00:18:00,
2013-01-19 19:24:00,38.0,24.9,29.85,SE,125,4.6,4.6,59,0.00,SCT,,0.00,0.0,WeatherDisplay:10.37,2013-01-20 00:24:00,
2013-01-19 19:29:00,38.9,25.4,29.84,SE,135,3.5,3.5,58,0.00,SCT,,0.00,0.0,WeatherDisplay:10.37,2013-01-20 00:29:00,
2013-01-19 19:34:00,39.3,25.7,29.84,SE,135,5.8,5.8,58,0.00,SCT,,0.00,0.0,WeatherDisplay:10.37,2013-01-20 00:34:00,
2013-01-19 19:39:00,39.9,24.6,29.84,SE,124,5.0,5.0,54,0.00,SCT,,0.00,0.0,WeatherDisplay:10.37,2013-01-20 00:39:00,
2013-01-19 19:44:00,40.5,25.1,29.83,SSE,154,9.0,9.0,54,0.00,SCT,,0.00,0.0,WeatherDisplay:10.37,2013-01-20 00:44:00,
2013-01-19 19:49:00,41.2,24.4,29.83,SE,144,4.6,4.6,51,0.00,SCT,,0.00,0.0,WeatherDisplay:10.37,2013-01-20 00:49:00,
2013-01-19 19:55:00,41.9,24.6,29.83,South,181,9.0,9.0,50,0.00,SCT,,0.00,0.0,WeatherDisplay:10.37,2013-01-20 00:55:00,
2013-01-19 20:00:00,42.3,24.0,29.82,SE,141,9.0,9.0,48,0.00,SCT,,0.00,0.0,WeatherDisplay:10.37,2013-01-20 01:00:00,
2013-01-19 20:05:00,42.9,23.0,29.82,SSE,153,11.5,11.5,45,0.00,OVC,,0.00,0.0,WeatherDisplay:10.37,2013-01-20 01:05:00,
2013-01-19 20:10:00,43.5,23.0,29.82,SSE,152,13.0,13.0,44,0.00,OVC,,0.00,0.0,WeatherDisplay:10.37,2013-01-20 01:10:00,
2013-01-19 20:15:00,43.8,23.8,29.80,South,180,12.0,12.0,45,0.00,OVC,,0.00,0.0,WeatherDisplay:10.37,2013-01-20 01:15:00,
2013-01-19 20:20:00,43.9,22.8,29.80,SE,142,7.0,7.0,43,0.00,OVC,,0.00,0.0,WeatherDisplay:10.37,2013-01-20 01:20:00,
2013-01-19 20:26:00,43.9,22.8,29.80,SE,139,11.5,11.5,43,0.00,OVC,,0.00,0.0,WeatherDisplay:10.37,2013-01-20 01:26:00,
2013-01-19 20:32:00,43.8,23.8,29.80,SE,129,6.0,6.0,45,0.00,OVC,,0.00,0.0,WeatherDisplay:10.37,2013-01-20 01:32:00,
2013-01-19 20:37:00,43.9,22.3,29.80,SE,134,6.9,6.9,42,0.00,OVC,,0.00,0.0,WeatherDisplay:10.37,2013-01-20 01:37:00,
2013-01-19 20:42:00,43.6,23.1,29.79,SE,140,4.0,4.0,44,0.00,OVC,,0.00,0.0,WeatherDisplay:10.37,2013-01-20 01:42:00,
2013-01-19 20:48:00,43.6,22.5,29.79,SSE,152,10.4,10.4,43,0.00,OVC,,0.00,0.0,WeatherDisplay:10.37,2013-01-20 01:48:00,
2013-01-19 20:53:00,43.6,22.5,29.79,SSE,167,10.4,10.4,43,0.00,OVC,,0.00,0.0,WeatherDisplay:10.37,2013-01-20 01:53:00,
2013-01-19 20:58:00,43.8,22.2,29.78,South,172,5.0,5.0,42,0.00,OVC,,0.00,0.0,WeatherDisplay:10.37,2013-01-20 01:58:00,
2013-01-19 21:03:00,43.8,22.7,29.78,West,262,7.0,7.0,43,0.00,OVC,,0.00,0.0,WeatherDisplay:10.37,2013-01-20 02:03:00,
2013-01-19 21:08:00,43.8,23.3,29.78,SSE,158,16.1,16.1,44,0.00,OVC,,0.00,0.0,WeatherDisplay:10.37,2013-01-20 02:08:00,
2013-01-19 21:14:00,43.8,22.7,29.78,SSW,197,10.4,10.4,43,0.00,OVC,,0.00,0.0,WeatherDisplay:10.37,2013-01-20 02:14:00,
2013-01-19 21:19:00,43.8,23.3,29.78,SSE,163,14.0,14.0,44,0.00,OVC,,0.00,0.0,WeatherDisplay:10.37,2013-01-20 02:19:00,
2013-01-19 21:24:00,43.5,23.5,29.78,SSE,155,10.0,10.0,45,0.00,OVC,,0.00,0.0,WeatherDisplay:10.37,2013-01-20 02:24:00,
2013-01-19 21:30:00,43.6,23.1,29.77,SE,145,13.8,13.8,44,0.00,OVC,,0.00,0.0,WeatherDisplay:10.37,2013-01-20 02:30:00,
2013-01-19 21:35:00,43.6,23.1,29.77,SSE,151,13.0,13.0,44,0.00,OVC,,0.00,0.0,WeatherDisplay:10.37,2013-01-20 02:35:00,
2013-01-19 21:40:00,43.6,22.5,29.77,SW,220,5.8,5.8,43,0.00,OVC,,0.00,0.0,WeatherDisplay:10.37,2013-01-20 02:40:00,
2013-01-19 21:46:00,43.6,22.5,29.77,SSW,193,3.5,3.5,43,0.00,OVC,,0.00,0.0,WeatherDisplay:10.37,2013-01-20 02:46:00,
2013-01-19 21:51:00,43.6,23.6,29.77,South,189,4.0,4.0,45,0.00,OVC,,0.00,0.0,WeatherDisplay:10.37,2013-01-20 02:51:00,
2013-01-19 21:57:00,43.5,22.5,29.76,WSW,238,4.0,4.0,43,0.00,OVC,,0.00,0.0,WeatherDisplay:10.37,2013-01-20 02:57:00,
2013-01-19 22:02:00,43.5,22.5,29.76,South,183,4.6,4.6,43,0.00,OVC,,0.00,0.0,WeatherDisplay:10.37,2013-01-20 03:02:00,
2013-01-19 22:08:00,43.5,23.5,29.76,West,279,3.5,3.5,45,0.00,OVC,,0.00,0.0,WeatherDisplay:10.37,2013-01-20 03:08:00,
2013-01-19 22:13:00,43.5,23.0,29.75,SE,146,6.0,6.0,44,0.00,OVC,,0.00,0.0,WeatherDisplay:10.37,2013-01-20 03:13:00,
2013-01-19 22:19:00,43.5,23.5,29.75,South,170,13.0,13.0,45,0.00,OVC,,0.00,0.0,WeatherDisplay:10.37,2013-01-20 03:19:00,
2013-01-19 22:24:00,43.8,23.8,29.75,SSW,195,11.0,11.0,45,0.00,OVC,,0.00,0.0,WeatherDisplay:10.37,2013-01-20 03:24:00,
2013-01-19 22:29:00,43.9,23.9,29.74,SSE,164,11.5,11.5,45,0.00,OVC,,0.00,0.0,WeatherDisplay:10.37,2013-01-20 03:29:00,
2013-01-19 22:34:00,44.1,24.1,29.74,ESE,122,9.2,9.2,45,0.00,OVC,,0.00,0.0,WeatherDisplay:10.37,2013-01-20 03:34:00,
2013-01-19 22:39:00,44.2,24.7,29.74,SSW,208,19.6,19.6,46,0.00,OVC,,0.00,0.0,WeatherDisplay:10.37,2013-01-20 03:39:00,
2013-01-19 22:44:00,44.3,24.3,29.72,SSE,155,19.6,19.6,45,0.00,OVC,,0.00,0.0,WeatherDisplay:10.37,2013-01-20 03:44:00,
2013-01-19 22:49:00,44.8,24.2,29.72,SE,125,20.0,20.0,44,0.00,OVC,,0.00,0.0,WeatherDisplay:10.37,2013-01-20 03:49:00,
2013-01-19 22:54:00,44.9,24.3,29.72,South,182,21.0,21.0,44,0.00,OVC,,0.00,0.0,WeatherDisplay:10.37,2013-01-20 03:54:00,
2013-01-19 22:59:00,45.1,23.9,29.72,SE,146,14.0,14.0,43,0.00,OVC,,0.00,0.0,WeatherDisplay:10.37,2013-01-20 03:59:00,
2013-01-19 23:04:00,45.2,24.0,29.72,South,188,14.0,14.0,43,0.00,OVC,,0.00,0.0,WeatherDisplay:10.37,2013-01-20 04:04:00,
2013-01-19 23:09:00,45.7,24.5,29.72,SSW,194,9.2,9.2,43,0.00,OVC,,0.00,0.0,WeatherDisplay:10.37,2013-01-20 04:09:00,
2013-01-19 23:14:00,45.7,24.5,29.71,South,175,15.0,15.0,43,0.00,OVC,,0.00,0.0,WeatherDisplay:10.37,2013-01-20 04:14:00,
2013-01-19 23:19:00,45.5,23.7,29.71,SSE,165,11.0,11.0,42,0.00,OVC,,0.00,0.0,WeatherDisplay:10.37,2013-01-20 04:19:00,
2013-01-19 23:24:00,45.7,23.9,29.71,SSE,157,15.0,15.0,42,0.00,OVC,,0.00,0.0,WeatherDisplay:10.37,2013-01-20 04:24:00,
2013-01-19 23:30:00,46.0,24.2,29.70,South,187,13.0,13.0,42,0.00,OVC,,0.00,0.0,WeatherDisplay:10.37,2013-01-20 04:30:00,
2013-01-19 23:35:00,46.1,24.8,29.70,South,189,11.5,11.5,43,0.00,OVC,,0.00,0.0,WeatherDisplay:10.37,2013-01-20 04:35:00,
2013-01-19 23:40:00,46.2,23.8,29.70,SE,133,11.5,11.5,41,0.00,OVC,,0.00,0.0,WeatherDisplay:10.37,2013-01-20 04:40:00,
2013-01-19 23:45:00,46.4,23.9,29.69,SSE,147,16.1,16.1,41,0.00,OVC,,0.00,0.0,WeatherDisplay:10.37,2013-01-20 04:45:00,
2013-01-19 23:50:00,46.5,24.0,29.69,South,169,24.2,24.2,41,0.00,OVC,,0.00,0.0,WeatherDisplay:10.37,2013-01-20 04:50:00,
2013-01-19 23:55:00,46.7,23.6,29.69,SSW,208,15.0,15.0,40,0.00,OVC,,0.00,0.0,WeatherDisplay:10.37,2013-01-20 04:55:00,